sensor_id;sensor_type;location;lat;lon;timestamp;pressure;altitude;pressure_sealevel;temperature;humidity
8253;BME280;61313;48.396;10.008;2023-04-15T00:00:06;95210.22;;;8.98;51.77
8253;BME280;61313;48.396;10.008;2023-04-15T00:02:31;95208.34;;;9.00;51.80
8253;BME280;61313;48.396;10.008;2023-04-15T00:04:56;95203.38;;;8.95;52.62
8253;BME280;61313;48.396;10.008;2023-04-15T00:07:22;95212.41;;;8.89;52.08
8253;BME280;61313;48.396;10.008;2023-04-15T00:09:47;95211.66;;;8.87;52.55
8253;BME280;61313;48.396;10.008;2023-04-15T00:12:13;95209.22;;;9.00;52.31
8253;BME280;61313;48.396;10.008;2023-04-15T00:14:38;95215.09;;;8.88;52.73
8253;BME280;61313;48.396;10.008;2023-04-15T00:17:04;95211.97;;;8.97;52.55
8253;BME280;61313;48.396;10.008;2023-04-15T00:19:30;95214.13;;;8.90;51.89
8253;BME280;61313;48.396;10.008;2023-04-15T00:21:56;95212.75;;;8.83;52.55
8253;BME280;61313;48.396;10.008;2023-04-15T00:24:22;95207.38;;;8.86;52.29
8253;BME280;61313;48.396;10.008;2023-04-15T00:26:48;95210.75;;;8.88;51.61
8253;BME280;61313;48.396;10.008;2023-04-15T00:29:13;95203.53;;;8.92;51.33
8253;BME280;61313;48.396;10.008;2023-04-15T00:31:39;95206.41;;;8.87;52.15
8253;BME280;61313;48.396;10.008;2023-04-15T00:34:05;95206.09;;;8.78;52.17
8253;BME280;61313;48.396;10.008;2023-04-15T00:36:30;95202.72;;;8.76;51.53
8253;BME280;61313;48.396;10.008;2023-04-15T00:38:56;95200.63;;;8.66;52.56
8253;BME280;61313;48.396;10.008;2023-04-15T00:41:22;95199.84;;;8.64;52.22
8253;BME280;61313;48.396;10.008;2023-04-15T00:43:47;95193.78;;;8.80;52.38
8253;BME280;61313;48.396;10.008;2023-04-15T00:46:14;95202.56;;;8.63;52.48
8253;BME280;61313;48.396;10.008;2023-04-15T00:48:40;95192.19;;;8.61;52.13
8253;BME280;61313;48.396;10.008;2023-04-15T00:51:06;95201.97;;;8.74;52.57
8253;BME280;61313;48.396;10.008;2023-04-15T00:53:32;95192.84;;;8.81;51.97
8253;BME280;61313;48.396;10.008;2023-04-15T00:55:58;95195.56;;;8.63;52.81
8253;BME280;61313;48.396;10.008;2023-04-15T00:58:24;95197.09;;;8.67;52.08
8253;BME280;61313;48.396;10.008;2023-04-15T01:00:50;95193.13;;;8.60;52.43
8253;BME280;61313;48.396;10.008;2023-04-15T01:03:18;95188.91;;;8.58;52.26
8253;BME280;61313;48.396;10.008;2023-04-15T01:05:44;95191.09;;;8.50;52.19
8253;BME280;61313;48.396;10.008;2023-04-15T01:08:10;95191.03;;;8.51;52.94
8253;BME280;61313;48.396;10.008;2023-04-15T01:10:36;95192.53;;;8.55;52.69
8253;BME280;61313;48.396;10.008;2023-04-15T01:13:02;95190.06;;;8.52;52.86
8253;BME280;61313;48.396;10.008;2023-04-15T01:15:28;95183.84;;;8.55;52.28
8253;BME280;61313;48.396;10.008;2023-04-15T01:17:53;95189.56;;;8.45;52.91
8253;BME280;61313;48.396;10.008;2023-04-15T01:20:19;95188.59;;;8.31;53.55
8253;BME280;61313;48.396;10.008;2023-04-15T01:22:47;95186.59;;;8.20;53.80
8253;BME280;61313;48.396;10.008;2023-04-15T01:25:17;95193.41;;;8.22;53.29
8253;BME280;61313;48.396;10.008;2023-04-15T01:27:43;95193.06;;;8.28;53.89
8253;BME280;61313;48.396;10.008;2023-04-15T01:30:09;95195.44;;;8.33;53.47
8253;BME280;61313;48.396;10.008;2023-04-15T01:32:34;95192.94;;;8.32;53.28
8253;BME280;61313;48.396;10.008;2023-04-15T01:35:00;95190.91;;;8.37;53.52
8253;BME280;61313;48.396;10.008;2023-04-15T01:37:26;95194.28;;;8.39;52.93
8253;BME280;61313;48.396;10.008;2023-04-15T01:39:51;95191.81;;;8.36;52.98
8253;BME280;61313;48.396;10.008;2023-04-15T01:42:17;95195.97;;;8.40;52.81
8253;BME280;61313;48.396;10.008;2023-04-15T01:44:44;95191.66;;;8.39;53.47
8253;BME280;61313;48.396;10.008;2023-04-15T01:47:09;95192.75;;;8.35;53.31
8253;BME280;61313;48.396;10.008;2023-04-15T01:49:34;95189.44;;;8.31;53.86
8253;BME280;61313;48.396;10.008;2023-04-15T01:52:00;95182.28;;;8.19;54.09
8253;BME280;61313;48.396;10.008;2023-04-15T01:54:25;95186.66;;;8.18;54.20
8253;BME280;61313;48.396;10.008;2023-04-15T01:56:52;95182.38;;;8.17;53.66
8253;BME280;61313;48.396;10.008;2023-04-15T01:59:17;95175.75;;;8.10;54.26
8253;BME280;61313;48.396;10.008;2023-04-15T02:01:43;95185.03;;;8.00;54.61
8253;BME280;61313;48.396;10.008;2023-04-15T02:04:09;95175.75;;;8.10;54.15
8253;BME280;61313;48.396;10.008;2023-04-15T02:06:43;95177.22;;;8.16;53.63
8253;BME280;61313;48.396;10.008;2023-04-15T02:09:09;95178.75;;;8.20;53.91
8253;BME280;61313;48.396;10.008;2023-04-15T02:11:35;95180.41;;;8.05;54.43
8253;BME280;61313;48.396;10.008;2023-04-15T02:14:02;95175.88;;;8.09;54.42
8253;BME280;61313;48.396;10.008;2023-04-15T02:16:29;95188.16;;;8.06;54.17
8253;BME280;61313;48.396;10.008;2023-04-15T02:18:54;95182.09;;;8.06;53.86
8253;BME280;61313;48.396;10.008;2023-04-15T02:21:20;95181.34;;;8.04;53.85
8253;BME280;61313;48.396;10.008;2023-04-15T02:23:46;95185.38;;;7.94;54.61
8253;BME280;61313;48.396;10.008;2023-04-15T02:26:12;95185.22;;;7.79;54.18
8253;BME280;61313;48.396;10.008;2023-04-15T02:28:38;95183.38;;;7.81;53.82
8253;BME280;61313;48.396;10.008;2023-04-15T02:31:06;95175.88;;;7.75;54.50
8253;BME280;61313;48.396;10.008;2023-04-15T02:33:33;95192.03;;;7.66;54.36
8253;BME280;61313;48.396;10.008;2023-04-15T02:35:59;95180.34;;;7.56;55.10
8253;BME280;61313;48.396;10.008;2023-04-15T02:38:24;95186.34;;;7.58;55.53
8253;BME280;61313;48.396;10.008;2023-04-15T02:40:50;95187.88;;;7.62;55.72
8253;BME280;61313;48.396;10.008;2023-04-15T02:43:16;95183.50;;;7.62;56.50
8253;BME280;61313;48.396;10.008;2023-04-15T02:45:42;95194.97;;;7.42;57.53
8253;BME280;61313;48.396;10.008;2023-04-15T02:48:08;95191.75;;;7.55;56.96
8253;BME280;61313;48.396;10.008;2023-04-15T02:50:33;95192.59;;;7.38;57.16
8253;BME280;61313;48.396;10.008;2023-04-15T02:52:59;95197.88;;;7.36;57.64
8253;BME280;61313;48.396;10.008;2023-04-15T02:55:28;95195.66;;;7.29;57.76
8253;BME280;61313;48.396;10.008;2023-04-15T02:58:02;95191.00;;;7.35;57.78
8253;BME280;61313;48.396;10.008;2023-04-15T03:00:30;95194.06;;;7.26;58.41
8253;BME280;61313;48.396;10.008;2023-04-15T03:03:02;95188.47;;;7.16;58.69
8253;BME280;61313;48.396;10.008;2023-04-15T03:05:28;95191.69;;;7.21;58.53
8253;BME280;61313;48.396;10.008;2023-04-15T03:07:53;95185.91;;;7.15;58.59
8253;BME280;61313;48.396;10.008;2023-04-15T03:10:20;95185.47;;;7.07;58.89
8253;BME280;61313;48.396;10.008;2023-04-15T03:12:55;95193.75;;;6.97;59.39
8253;BME280;61313;48.396;10.008;2023-04-15T03:15:21;95188.00;;;7.08;59.14
8253;BME280;61313;48.396;10.008;2023-04-15T03:17:51;95189.75;;;7.08;58.96
8253;BME280;61313;48.396;10.008;2023-04-15T03:20:17;95190.47;;;7.11;58.76
8253;BME280;61313;48.396;10.008;2023-04-15T03:22:43;95189.13;;;7.20;58.58
8253;BME280;61313;48.396;10.008;2023-04-15T03:25:11;95173.81;;;7.14;58.74
8253;BME280;61313;48.396;10.008;2023-04-15T03:27:37;95181.63;;;7.14;58.44
8253;BME280;61313;48.396;10.008;2023-04-15T03:30:03;95182.72;;;7.10;58.73
8253;BME280;61313;48.396;10.008;2023-04-15T03:32:31;95183.03;;;7.21;58.20
8253;BME280;61313;48.396;10.008;2023-04-15T03:35:25;95186.38;;;7.06;58.30
8253;BME280;61313;48.396;10.008;2023-04-15T03:37:51;95182.63;;;7.11;58.43
8253;BME280;61313;48.396;10.008;2023-04-15T03:40:17;95177.31;;;6.95;58.44
8253;BME280;61313;48.396;10.008;2023-04-15T03:42:42;95187.16;;;7.08;58.26
8253;BME280;61313;48.396;10.008;2023-04-15T03:45:08;95177.88;;;7.19;57.61
8253;BME280;61313;48.396;10.008;2023-04-15T03:47:33;95184.59;;;7.06;58.14
8253;BME280;61313;48.396;10.008;2023-04-15T03:49:59;95174.09;;;7.08;58.34
8253;BME280;61313;48.396;10.008;2023-04-15T03:52:24;95181.25;;;7.04;57.71
8253;BME280;61313;48.396;10.008;2023-04-15T03:54:50;95180.72;;;6.97;58.40
8253;BME280;61313;48.396;10.008;2023-04-15T03:57:15;95179.78;;;6.98;57.93
8253;BME280;61313;48.396;10.008;2023-04-15T03:59:41;95187.97;;;6.91;58.52
8253;BME280;61313;48.396;10.008;2023-04-15T04:02:06;95187.16;;;6.90;58.37
8253;BME280;61313;48.396;10.008;2023-04-15T04:04:34;95186.97;;;6.76;58.86
8253;BME280;61313;48.396;10.008;2023-04-15T04:07:02;95186.97;;;6.76;59.26
8253;BME280;61313;48.396;10.008;2023-04-15T04:09:33;95190.19;;;6.81;59.01
8253;BME280;61313;48.396;10.008;2023-04-15T04:11:59;95186.81;;;6.79;58.77
8253;BME280;61313;48.396;10.008;2023-04-15T04:14:44;95194.78;;;6.76;59.15
8253;BME280;61313;48.396;10.008;2023-04-15T04:17:13;95193.25;;;6.72;59.26
8253;BME280;61313;48.396;10.008;2023-04-15T04:19:38;95190.78;;;6.69;58.98
8253;BME280;61313;48.396;10.008;2023-04-15T04:22:04;95196.63;;;6.74;58.94
8253;BME280;61313;48.396;10.008;2023-04-15T04:24:30;95193.63;;;6.64;59.43
8253;BME280;61313;48.396;10.008;2023-04-15T04:26:55;95194.78;;;6.76;58.72
8253;BME280;61313;48.396;10.008;2023-04-15T04:29:21;95193.66;;;6.82;58.40
8253;BME280;61313;48.396;10.008;2023-04-15T04:31:46;95199.19;;;6.93;58.00
8253;BME280;61313;48.396;10.008;2023-04-15T04:34:13;95200.91;;;6.75;58.60
8253;BME280;61313;48.396;10.008;2023-04-15T04:36:38;95198.53;;;6.70;58.66
8253;BME280;61313;48.396;10.008;2023-04-15T04:39:03;95202.44;;;6.62;58.90
8253;BME280;61313;48.396;10.008;2023-04-15T04:41:29;95206.03;;;6.59;58.94
8253;BME280;61313;48.396;10.008;2023-04-15T04:43:54;95206.78;;;6.61;58.66
8253;BME280;61313;48.396;10.008;2023-04-15T04:46:20;95215.91;;;6.52;59.10
8253;BME280;61313;48.396;10.008;2023-04-15T04:48:45;95213.50;;;6.48;59.32
8253;BME280;61313;48.396;10.008;2023-04-15T04:51:11;95209.81;;;6.52;58.66
8253;BME280;61313;48.396;10.008;2023-04-15T04:53:36;95214.41;;;6.47;59.21
8253;BME280;61313;48.396;10.008;2023-04-15T04:56:02;95213.84;;;6.40;59.29
8253;BME280;61313;48.396;10.008;2023-04-15T04:58:28;95213.50;;;6.48;58.81
8253;BME280;61313;48.396;10.008;2023-04-15T05:00:53;95216.38;;;6.42;59.41
8253;BME280;61313;48.396;10.008;2023-04-15T05:03:19;95219.97;;;6.39;59.23
8253;BME280;61313;48.396;10.008;2023-04-15T05:05:44;95209.63;;;6.38;58.88
8253;BME280;61313;48.396;10.008;2023-04-15T05:08:10;95204.59;;;6.52;58.83
8253;BME280;61313;48.396;10.008;2023-04-15T05:10:35;95209.97;;;6.49;59.07
8253;BME280;61313;48.396;10.008;2023-04-15T05:13:00;95211.38;;;6.37;58.99
8253;BME280;61313;48.396;10.008;2023-04-15T05:15:26;95208.72;;;6.39;59.09
8253;BME280;61313;48.396;10.008;2023-04-15T05:17:51;95218.09;;;6.43;59.25
8253;BME280;61313;48.396;10.008;2023-04-15T05:20:17;95213.72;;;6.43;59.08
8253;BME280;61313;48.396;10.008;2023-04-15T05:22:42;95199.91;;;6.60;58.37
8253;BME280;61313;48.396;10.008;2023-04-15T05:25:08;95205.44;;;6.71;57.94
8253;BME280;61313;48.396;10.008;2023-04-15T05:27:34;95197.63;;;6.71;58.45
8253;BME280;61313;48.396;10.008;2023-04-15T05:29:59;95209.50;;;6.77;57.67
8253;BME280;61313;48.396;10.008;2023-04-15T05:32:25;95212.59;;;6.85;57.32
8253;BME280;61313;48.396;10.008;2023-04-15T05:34:50;95208.78;;;6.92;56.98
8253;BME280;61313;48.396;10.008;2023-04-15T05:37:16;95214.38;;;7.02;56.66
8253;BME280;61313;48.396;10.008;2023-04-15T05:39:41;95216.63;;;7.10;56.45
8253;BME280;61313;48.396;10.008;2023-04-15T05:42:07;95218.63;;;7.05;56.46
8253;BME280;61313;48.396;10.008;2023-04-15T05:44:32;95218.38;;;7.09;56.82
8253;BME280;61313;48.396;10.008;2023-04-15T05:46:58;95219.53;;;7.21;56.29
8253;BME280;61313;48.396;10.008;2023-04-15T05:49:23;95225.91;;;7.33;55.89
8253;BME280;61313;48.396;10.008;2023-04-15T05:51:49;95227.97;;;7.61;55.06
8253;BME280;61313;48.396;10.008;2023-04-15T05:54:14;95227.50;;;7.53;54.77
8253;BME280;61313;48.396;10.008;2023-04-15T05:56:40;95227.38;;;7.38;54.94
8253;BME280;61313;48.396;10.008;2023-04-15T05:59:05;95228.59;;;7.31;55.74
8253;BME280;61313;48.396;10.008;2023-04-15T06:01:32;95235.03;;;7.24;55.54
8253;BME280;61313;48.396;10.008;2023-04-15T06:03:58;95224.44;;;7.27;55.76
8253;BME280;61313;48.396;10.008;2023-04-15T06:06:24;95228.59;;;7.14;55.83
8253;BME280;61313;48.396;10.008;2023-04-15T06:08:51;95230.66;;;7.07;56.00
8253;BME280;61313;48.396;10.008;2023-04-15T06:11:16;95226.28;;;7.08;56.21
8253;BME280;61313;48.396;10.008;2023-04-15T06:13:42;95228.72;;;7.11;56.50
8253;BME280;61313;48.396;10.008;2023-04-15T06:16:07;95229.94;;;7.04;56.52
8253;BME280;61313;48.396;10.008;2023-04-15T06:18:33;95229.88;;;7.05;56.32
8253;BME280;61313;48.396;10.008;2023-04-15T06:20:58;95233.19;;;7.09;56.21
8253;BME280;61313;48.396;10.008;2023-04-15T06:23:24;95233.72;;;7.15;56.23
8253;BME280;61313;48.396;10.008;2023-04-15T06:25:49;95234.44;;;7.19;56.42
8253;BME280;61313;48.396;10.008;2023-04-15T06:28:15;95228.44;;;7.17;56.42
8253;BME280;61313;48.396;10.008;2023-04-15T06:30:41;95228.59;;;7.31;55.75
8253;BME280;61313;48.396;10.008;2023-04-15T06:33:06;95230.31;;;7.32;56.09
8253;BME280;61313;48.396;10.008;2023-04-15T06:35:32;95233.91;;;7.47;55.50
8253;BME280;61313;48.396;10.008;2023-04-15T06:37:57;95234.22;;;7.58;54.96
8253;BME280;61313;48.396;10.008;2023-04-15T06:40:23;95230.97;;;7.71;54.58
8253;BME280;61313;48.396;10.008;2023-04-15T06:42:48;95232.41;;;7.76;54.89
8253;BME280;61313;48.396;10.008;2023-04-15T06:45:14;95232.53;;;7.91;55.16
8253;BME280;61313;48.396;10.008;2023-04-15T06:47:40;95233.31;;;7.93;54.65
8253;BME280;61313;48.396;10.008;2023-04-15T06:50:06;95235.63;;;8.15;53.69
8253;BME280;61313;48.396;10.008;2023-04-15T06:52:33;95231.75;;;8.22;53.96
8253;BME280;61313;48.396;10.008;2023-04-15T06:54:59;95235.59;;;8.32;54.39
8253;BME280;61313;48.396;10.008;2023-04-15T06:57:26;95234.28;;;8.57;53.38
8253;BME280;61313;48.396;10.008;2023-04-15T06:59:53;95237.16;;;8.68;53.46
8253;BME280;61313;48.396;10.008;2023-04-15T07:02:18;95239.53;;;8.88;52.84
8253;BME280;61313;48.396;10.008;2023-04-15T07:04:44;95231.97;;;9.44;51.24
8253;BME280;61313;48.396;10.008;2023-04-15T07:07:10;95238.41;;;9.69;50.13
8253;BME280;61313;48.396;10.008;2023-04-15T07:09:36;95237.88;;;9.48;51.27
8253;BME280;61313;48.396;10.008;2023-04-15T07:12:01;95231.31;;;9.85;50.29
8253;BME280;61313;48.396;10.008;2023-04-15T07:14:27;95224.59;;;9.95;49.79
8253;BME280;61313;48.396;10.008;2023-04-15T07:16:53;95225.06;;;10.02;49.28
8253;BME280;61313;48.396;10.008;2023-04-15T07:19:19;95212.59;;;10.63;48.19
8253;BME280;61313;48.396;10.008;2023-04-15T07:21:45;95212.75;;;11.29;46.44
8253;BME280;61313;48.396;10.008;2023-04-15T07:24:11;95209.47;;;11.78;45.29
8253;BME280;61313;48.396;10.008;2023-04-15T07:26:36;95214.13;;;12.25;43.76
8253;BME280;61313;48.396;10.008;2023-04-15T07:29:01;95207.59;;;12.57;43.13
8253;BME280;61313;48.396;10.008;2023-04-15T07:31:27;95208.84;;;12.51;42.78
8253;BME280;61313;48.396;10.008;2023-04-15T07:33:53;95211.00;;;12.33;43.10
8253;BME280;61313;48.396;10.008;2023-04-15T07:36:18;95204.88;;;12.20;43.90
8253;BME280;61313;48.396;10.008;2023-04-15T07:38:44;95204.75;;;11.83;44.34
8253;BME280;61313;48.396;10.008;2023-04-15T07:41:10;95204.44;;;11.75;44.70
8253;BME280;61313;48.396;10.008;2023-04-15T07:43:36;95209.94;;;11.97;44.47
8253;BME280;61313;48.396;10.008;2023-04-15T07:46:01;95213.09;;;12.15;44.54
8253;BME280;61313;48.396;10.008;2023-04-15T07:48:26;95200.47;;;12.20;44.07
8253;BME280;61313;48.396;10.008;2023-04-15T07:50:52;95207.31;;;12.36;44.48
8253;BME280;61313;48.396;10.008;2023-04-15T07:53:17;95203.94;;;12.21;44.88
8253;BME280;61313;48.396;10.008;2023-04-15T07:55:43;95202.97;;;12.35;43.90
8253;BME280;61313;48.396;10.008;2023-04-15T07:58:08;95199.69;;;12.44;44.17
8253;BME280;61313;48.396;10.008;2023-04-15T08:00:34;95202.84;;;12.49;43.90
8253;BME280;61313;48.396;10.008;2023-04-15T08:02:59;95205.22;;;13.02;54.94
8253;BME280;61313;48.396;10.008;2023-04-15T08:05:24;95192.25;;;13.93;57.59
8253;BME280;61313;48.396;10.008;2023-04-15T08:07:50;95192.28;;;14.50;54.67
8253;BME280;61313;48.396;10.008;2023-04-15T08:10:16;95184.34;;;13.82;43.12
8253;BME280;61313;48.396;10.008;2023-04-15T08:12:41;95196.00;;;13.44;43.00
8253;BME280;61313;48.396;10.008;2023-04-15T08:15:07;95188.63;;;13.12;43.58
8253;BME280;61313;48.396;10.008;2023-04-15T08:17:33;95196.78;;;12.97;43.91
8253;BME280;61313;48.396;10.008;2023-04-15T08:19:59;95193.28;;;13.09;43.97
8253;BME280;61313;48.396;10.008;2023-04-15T08:22:24;95192.13;;;13.37;43.49
8253;BME280;61313;48.396;10.008;2023-04-15T08:24:50;95190.81;;;13.43;43.28
8253;BME280;61313;48.396;10.008;2023-04-15T08:27:15;95194.91;;;13.47;43.26
8253;BME280;61313;48.396;10.008;2023-04-15T08:29:41;95188.09;;;13.55;43.69
8253;BME280;61313;48.396;10.008;2023-04-15T08:32:07;95191.75;;;12.93;43.86
8253;BME280;61313;48.396;10.008;2023-04-15T08:34:33;95187.69;;;13.13;44.11
8253;BME280;61313;48.396;10.008;2023-04-15T08:36:59;95187.88;;;13.10;43.94
8253;BME280;61313;48.396;10.008;2023-04-15T08:39:25;95192.44;;;13.08;44.04
8253;BME280;61313;48.396;10.008;2023-04-15T08:42:00;95194.78;;;13.24;43.86
8253;BME280;61313;48.396;10.008;2023-04-15T08:44:34;95194.97;;;13.34;43.92
8253;BME280;61313;48.396;10.008;2023-04-15T08:47:01;95189.84;;;13.20;43.60
8253;BME280;61313;48.396;10.008;2023-04-15T08:49:27;95189.84;;;13.44;44.08
8253;BME280;61313;48.396;10.008;2023-04-15T08:51:54;95188.13;;;13.31;43.88
8253;BME280;61313;48.396;10.008;2023-04-15T08:54:21;95191.13;;;13.62;43.40
8253;BME280;61313;48.396;10.008;2023-04-15T08:56:47;95187.75;;;13.60;43.75
8253;BME280;61313;48.396;10.008;2023-04-15T08:59:13;95175.44;;;13.61;43.29
8253;BME280;61313;48.396;10.008;2023-04-15T09:01:40;95174.13;;;13.66;43.22
8253;BME280;61313;48.396;10.008;2023-04-15T09:04:06;95176.66;;;13.68;43.81
8253;BME280;61313;48.396;10.008;2023-04-15T09:06:32;95176.31;;;13.84;42.92
8253;BME280;61313;48.396;10.008;2023-04-15T09:08:58;95180.78;;;14.06;42.73
8253;BME280;61313;48.396;10.008;2023-04-15T09:11:24;95184.50;;;14.03;42.96
8253;BME280;61313;48.396;10.008;2023-04-15T09:13:49;95174.44;;;14.08;42.28
8253;BME280;61313;48.396;10.008;2023-04-15T09:16:15;95172.41;;;14.34;42.05
8253;BME280;61313;48.396;10.008;2023-04-15T09:18:41;95164.56;;;14.89;40.75
8253;BME280;61313;48.396;10.008;2023-04-15T09:23:39;95162.25;;;15.28;40.09
8253;BME280;61313;48.396;10.008;2023-04-15T09:26:05;95168.22;;;15.41;39.96
8253;BME280;61313;48.396;10.008;2023-04-15T09:28:31;95166.41;;;15.95;38.16
8253;BME280;61313;48.396;10.008;2023-04-15T09:30:57;95163.34;;;16.21;37.27
8253;BME280;61313;48.396;10.008;2023-04-15T09:33:23;95162.38;;;16.32;36.25
8253;BME280;61313;48.396;10.008;2023-04-15T09:36:03;95165.78;;;16.13;35.98
8253;BME280;61313;48.396;10.008;2023-04-15T09:38:30;95168.72;;;15.35;34.71
8253;BME280;61313;48.396;10.008;2023-04-15T09:40:57;95173.50;;;15.41;35.08
8253;BME280;61313;48.396;10.008;2023-04-15T09:43:36;95168.09;;;15.11;35.19
8253;BME280;61313;48.396;10.008;2023-04-15T09:46:03;95169.56;;;15.03;37.83
8253;BME280;61313;48.396;10.008;2023-04-15T09:48:28;95171.72;;;15.10;37.86
8253;BME280;61313;48.396;10.008;2023-04-15T09:50:57;95180.59;;;15.09;36.90
8253;BME280;61313;48.396;10.008;2023-04-15T09:53:24;95168.84;;;15.01;32.25
8253;BME280;61313;48.396;10.008;2023-04-15T09:55:55;95168.66;;;14.71;32.27
8253;BME280;61313;48.396;10.008;2023-04-15T09:58:25;95169.03;;;14.66;31.87
8253;BME280;61313;48.396;10.008;2023-04-15T10:00:52;95174.81;;;14.60;32.56
8253;BME280;61313;48.396;10.008;2023-04-15T10:03:26;95169.50;;;14.37;32.38
8253;BME280;61313;48.396;10.008;2023-04-15T10:05:54;95178.25;;;14.38;32.78
8253;BME280;61313;48.396;10.008;2023-04-15T10:08:23;95180.44;;;14.33;32.42
8253;BME280;61313;48.396;10.008;2023-04-15T10:10:49;95177.31;;;14.39;32.38
8253;BME280;61313;48.396;10.008;2023-04-15T10:13:25;95176.97;;;14.32;31.95
8253;BME280;61313;48.396;10.008;2023-04-15T10:16:12;95186.16;;;14.27;32.88
8253;BME280;61313;48.396;10.008;2023-04-15T10:18:42;95173.47;;;14.77;33.34
8253;BME280;61313;48.396;10.008;2023-04-15T10:21:08;95176.94;;;15.21;32.59
8253;BME280;61313;48.396;10.008;2023-04-15T10:23:34;95176.56;;;15.58;32.16
8253;BME280;61313;48.396;10.008;2023-04-15T10:26:01;95179.78;;;15.61;31.97
8253;BME280;61313;48.396;10.008;2023-04-15T10:28:37;95175.00;;;15.55;31.93
8253;BME280;61313;48.396;10.008;2023-04-15T10:31:03;95179.69;;;15.52;31.53
8253;BME280;61313;48.396;10.008;2023-04-15T10:33:30;95174.19;;;15.22;31.69
8253;BME280;61313;48.396;10.008;2023-04-15T10:35:56;95178.41;;;15.14;31.38
8253;BME280;61313;48.396;10.008;2023-04-15T10:38:31;95185.69;;;14.89;31.92
8253;BME280;61313;48.396;10.008;2023-04-15T10:41:14;95181.41;;;14.66;31.84
8253;BME280;61313;48.396;10.008;2023-04-15T10:43:55;95185.13;;;14.74;32.95
8253;BME280;61313;48.396;10.008;2023-04-15T10:46:43;95176.84;;;15.11;32.68
8253;BME280;61313;48.396;10.008;2023-04-15T10:49:10;95187.34;;;14.90;31.99
8253;BME280;61313;48.396;10.008;2023-04-15T10:51:38;95189.97;;;15.01;32.67
8253;BME280;61313;48.396;10.008;2023-04-15T10:54:11;95196.47;;;15.41;31.57
8253;BME280;61313;48.396;10.008;2023-04-15T10:56:40;95195.22;;;15.24;31.42
8253;BME280;61313;48.396;10.008;2023-04-15T10:59:06;95198.41;;;15.71;31.18
8253;BME280;61313;48.396;10.008;2023-04-15T11:01:55;95187.69;;;15.94;31.38
8253;BME280;61313;48.396;10.008;2023-04-15T11:04:58;95181.72;;;15.27;31.94
8253;BME280;61313;48.396;10.008;2023-04-15T11:09:58;95186.75;;;15.62;32.21
8253;BME280;61313;48.396;10.008;2023-04-15T11:12:33;95198.69;;;15.57;31.55
8253;BME280;61313;48.396;10.008;2023-04-15T11:14:59;95204.53;;;15.72;31.11
8253;BME280;61313;48.396;10.008;2023-04-15T11:17:27;95187.28;;;15.24;31.21
8253;BME280;61313;48.396;10.008;2023-04-15T11:19:53;95198.03;;;15.64;31.28
8253;BME280;61313;48.396;10.008;2023-04-15T11:22:19;95186.88;;;15.61;30.83
8253;BME280;61313;48.396;10.008;2023-04-15T11:24:47;95196.84;;;15.36;31.28
8253;BME280;61313;48.396;10.008;2023-04-15T11:27:22;95202.91;;;15.48;31.16
8253;BME280;61313;48.396;10.008;2023-04-15T11:29:48;95206.72;;;15.55;31.14
8253;BME280;61313;48.396;10.008;2023-04-15T11:32:13;95209.63;;;15.20;31.86
8253;BME280;61313;48.396;10.008;2023-04-15T11:34:39;95208.41;;;15.24;31.67
8253;BME280;61313;48.396;10.008;2023-04-15T11:37:05;95217.44;;;15.21;30.53
8253;BME280;61313;48.396;10.008;2023-04-15T11:39:32;95208.66;;;15.21;30.06
8253;BME280;61313;48.396;10.008;2023-04-15T11:41:57;95213.09;;;14.77;30.61
8253;BME280;61313;48.396;10.008;2023-04-15T11:44:23;95221.13;;;14.87;31.89
8253;BME280;61313;48.396;10.008;2023-04-15T11:46:48;95222.56;;;14.79;32.42
8253;BME280;61313;48.396;10.008;2023-04-15T11:49:28;95228.41;;;14.94;32.50
8253;BME280;61313;48.396;10.008;2023-04-15T11:51:53;95230.69;;;14.88;32.71
8253;BME280;61313;48.396;10.008;2023-04-15T11:54:19;95247.06;;;14.81;32.65
8253;BME280;61313;48.396;10.008;2023-04-15T11:56:50;95234.00;;;14.57;34.43
8253;BME280;61313;48.396;10.008;2023-04-15T11:59:16;95242.75;;;14.58;35.22
8253;BME280;61313;48.396;10.008;2023-04-15T12:01:41;95249.28;;;14.52;34.78
8253;BME280;61313;48.396;10.008;2023-04-15T12:04:15;95249.44;;;14.51;35.60
8253;BME280;61313;48.396;10.008;2023-04-15T12:06:41;95257.56;;;13.79;40.63
8253;BME280;61313;48.396;10.008;2023-04-15T12:09:11;95262.28;;;13.62;42.37
8253;BME280;61313;48.396;10.008;2023-04-15T12:11:48;95269.03;;;13.66;41.96
8253;BME280;61313;48.396;10.008;2023-04-15T12:16:48;95282.31;;;13.65;41.53
8253;BME280;61313;48.396;10.008;2023-04-15T12:19:16;95279.81;;;13.63;41.98
8253;BME280;61313;48.396;10.008;2023-04-15T12:21:46;95285.78;;;13.41;42.93
8253;BME280;61313;48.396;10.008;2023-04-15T12:24:13;95282.47;;;13.26;43.69
8253;BME280;61313;48.396;10.008;2023-04-15T12:26:46;95288.75;;;13.37;41.86
8253;BME280;61313;48.396;10.008;2023-04-15T12:29:13;95291.31;;;13.25;42.25
8253;BME280;61313;48.396;10.008;2023-04-15T12:31:56;95292.38;;;13.36;41.34
8253;BME280;61313;48.396;10.008;2023-04-15T12:34:30;95301.75;;;13.40;41.20
8253;BME280;61313;48.396;10.008;2023-04-15T12:36:57;95301.25;;;13.70;41.78
8253;BME280;61313;48.396;10.008;2023-04-15T12:39:29;95296.50;;;13.51;40.96
8253;BME280;61313;48.396;10.008;2023-04-15T12:41:55;95299.38;;;13.48;41.21
8253;BME280;61313;48.396;10.008;2023-04-15T12:44:23;95309.41;;;13.67;40.36
8253;BME280;61313;48.396;10.008;2023-04-15T12:46:50;95309.75;;;13.62;40.86
8253;BME280;61313;48.396;10.008;2023-04-15T12:49:16;95317.97;;;13.82;40.16
8253;BME280;61313;48.396;10.008;2023-04-15T12:51:46;95317.59;;;13.75;39.84
8253;BME280;61313;48.396;10.008;2023-04-15T12:54:12;95317.72;;;13.73;39.64
8253;BME280;61313;48.396;10.008;2023-04-15T12:56:38;95323.97;;;13.84;39.70
8253;BME280;61313;48.396;10.008;2023-04-15T12:59:03;95318.50;;;13.98;38.93
8253;BME280;61313;48.396;10.008;2023-04-15T13:01:29;95317.28;;;13.91;38.97
8253;BME280;61313;48.396;10.008;2023-04-15T13:03:54;95322.69;;;14.25;38.09
8253;BME280;61313;48.396;10.008;2023-04-15T13:06:20;95320.59;;;14.06;38.20
8253;BME280;61313;48.396;10.008;2023-04-15T13:08:45;95324.47;;;14.13;38.07
8253;BME280;61313;48.396;10.008;2023-04-15T13:11:11;95307.75;;;14.12;37.68